Airport View

Enter AWOS ICAO identifier for current METAR.

ex. KFNL

KEHO 041605Z AUTO 24004KT 10SM SCT039 30/20 A2999 RMK AO2 T03000204

4 Jul 2020 16:10

Frequency: 118.425

Phone: 704-487-0100

Other Area AWOS: KFQD - KAKH - KIPJ - KSPA

TAF KHKY 041120Z 0412/0512 00000KT P6SM SCT080 FM041500 VRB03KT P6SM FEW050 FM041800 13005KT P6SM SCT060 FM050200 00000KT P6SM FEW070